createdAt,value
2019-04-04T00:02:18.791Z,8.37
2019-04-04T00:04:52.304Z,7.93
2019-04-04T00:07:19.947Z,8.13
2019-04-04T00:09:48.768Z,8.70
2019-04-04T00:12:17.919Z,7.67
2019-04-04T00:14:46.749Z,7.50
2019-04-04T00:17:15.852Z,8.20
2019-04-04T00:19:44.720Z,7.40
2019-04-04T00:22:13.541Z,7.60
2019-04-04T00:24:43.130Z,8.37
2019-04-04T00:27:13.713Z,8.10
2019-04-04T00:29:43.092Z,8.17
2019-04-04T00:32:11.875Z,8.77
2019-04-04T00:34:41.356Z,8.20
2019-04-04T00:37:10.667Z,8.97
2019-04-04T00:39:39.924Z,8.50
2019-04-04T00:42:09.938Z,8.93
2019-04-04T00:44:39.290Z,8.67
2019-04-04T00:47:08.117Z,8.53
2019-04-04T00:49:37.442Z,8.53
2019-04-04T00:52:06.366Z,8.70
2019-04-04T00:54:35.284Z,9.07
2019-04-04T00:57:04.348Z,8.70
2019-04-04T00:59:33.291Z,9.00
2019-04-04T01:02:02.133Z,9.10
2019-04-04T01:04:31.205Z,9.27
2019-04-04T01:07:01.077Z,9.23
2019-04-04T01:09:29.862Z,10.03
2019-04-04T01:11:58.808Z,9.97
2019-04-04T01:14:29.221Z,9.50
2019-04-04T01:16:58.758Z,10.30
2019-04-04T01:19:27.949Z,10.23
2019-04-04T01:21:56.727Z,9.53
2019-04-04T01:24:27.099Z,10.40
2019-04-04T01:26:56.771Z,10.43
2019-04-04T01:29:25.567Z,10.53
2019-04-04T01:31:54.582Z,10.37
2019-04-04T01:34:23.368Z,11.20
2019-04-04T01:36:52.334Z,11.20
2019-04-04T01:39:21.169Z,10.83
2019-04-04T01:41:49.990Z,10.97
2019-04-04T01:44:18.762Z,10.50
2019-04-04T01:46:47.865Z,10.43
2019-04-04T01:49:16.656Z,10.77
2019-04-04T01:51:45.476Z,11.07
2019-04-04T01:54:14.505Z,11.63
2019-04-04T01:56:43.319Z,11.17
2019-04-04T01:59:12.935Z,10.83
2019-04-04T02:01:42.536Z,11.23
2019-04-04T02:04:11.760Z,11.30
2019-04-04T02:06:40.595Z,10.60
2019-04-04T02:09:09.428Z,11.10
2019-04-04T02:11:38.604Z,10.87
2019-04-04T02:14:07.472Z,10.50
2019-04-04T02:16:36.763Z,10.33
2019-04-04T02:19:05.561Z,11.20
2019-04-04T02:21:34.887Z,10.57
2019-04-04T02:24:04.460Z,10.25
2019-04-04T02:26:35.763Z,9.90
2019-04-04T02:29:03.907Z,9.00
2019-04-04T02:31:36.800Z,9.50
2019-04-04T02:34:06.500Z,11.00
2019-04-04T02:36:35.427Z,10.97
2019-04-04T02:39:08.448Z,10.70
2019-04-04T02:41:37.490Z,10.80
2019-04-04T02:44:06.430Z,10.73
2019-04-04T02:46:35.193Z,10.57
2019-04-04T02:49:04.052Z,10.60
2019-04-04T02:51:33.071Z,10.20
2019-04-04T02:54:01.900Z,10.33
2019-04-04T02:56:35.011Z,10.67
2019-04-04T02:59:01.353Z,11.23
2019-04-04T03:01:32.275Z,11.00
2019-04-04T03:04:00.955Z,11.05
2019-04-04T03:06:29.952Z,11.23
2019-04-04T03:08:59.246Z,10.13
2019-04-04T03:11:28.099Z,10.57
2019-04-04T03:13:57.371Z,11.03
2019-04-04T03:16:26.355Z,10.37
2019-04-04T03:18:55.237Z,10.73
2019-04-04T03:21:25.782Z,10.93
2019-04-04T03:23:54.602Z,10.03
2019-04-04T03:26:23.416Z,10.57
2019-04-04T03:28:52.925Z,11.13
2019-04-04T03:31:21.791Z,10.70
2019-04-04T03:33:51.973Z,11.80
2019-04-04T03:36:21.645Z,10.63
2019-04-04T03:38:50.665Z,10.63
2019-04-04T03:41:19.575Z,10.57
2019-04-04T03:43:49.151Z,10.60
2019-04-04T03:46:18.351Z,10.60
2019-04-04T03:48:49.808Z,11.40
2019-04-04T03:51:18.354Z,11.10
2019-04-04T03:53:53.006Z,11.00
2019-04-04T03:56:21.892Z,10.83
2019-04-04T03:58:50.935Z,10.20
2019-04-04T04:01:21.330Z,9.73
2019-04-04T04:03:50.152Z,9.77
2019-04-04T04:06:18.966Z,10.97
2019-04-04T04:08:48.054Z,11.33
2019-04-04T04:11:17.145Z,11.20
2019-04-04T04:13:49.013Z,11.33
2019-04-04T04:16:16.791Z,10.97
2019-04-04T04:18:45.735Z,11.00
2019-04-04T04:21:14.875Z,11.00
2019-04-04T04:23:43.736Z,10.60
2019-04-04T04:26:12.554Z,10.70
2019-04-04T04:28:41.578Z,11.40
2019-04-04T04:31:15.383Z,10.03
2019-04-04T04:33:43.842Z,10.67
2019-04-04T04:36:15.357Z,10.20
2019-04-04T04:38:43.391Z,10.40
2019-04-04T04:41:12.224Z,11.33
2019-04-04T04:43:41.127Z,10.77
2019-04-04T04:46:10.126Z,11.93
2019-04-04T04:48:38.998Z,12.23
2019-04-04T04:51:11.524Z,12.50
2019-04-04T04:53:38.775Z,12.00
2019-04-04T04:56:07.598Z,12.50
2019-04-04T04:58:36.506Z,11.70
2019-04-04T05:01:05.491Z,11.73
2019-04-04T05:03:34.965Z,11.27
2019-04-04T05:06:03.941Z,11.63
2019-04-04T05:08:32.775Z,11.27
2019-04-04T05:11:03.450Z,12.07
2019-04-04T05:13:32.404Z,11.13
2019-04-04T05:16:03.967Z,11.27
2019-04-04T05:18:31.781Z,10.67
2019-04-04T05:21:02.021Z,10.80
2019-04-04T05:23:31.634Z,10.63
2019-04-04T05:26:03.149Z,11.90
2019-04-04T05:28:31.102Z,10.57
2019-04-04T05:31:00.135Z,10.17
2019-04-04T05:33:31.482Z,10.47
2019-04-04T05:35:59.502Z,11.53
2019-04-04T05:38:28.928Z,10.30
2019-04-04T05:40:57.716Z,10.80
2019-04-04T05:43:26.967Z,11.20
2019-04-04T05:45:56.032Z,11.47
2019-04-04T05:48:24.939Z,11.97
2019-04-04T05:50:53.963Z,12.03
2019-04-04T05:53:23.245Z,12.13
2019-04-04T05:55:52.935Z,12.20
2019-04-04T05:58:22.632Z,12.57
2019-04-04T06:00:51.899Z,13.03
2019-04-04T06:03:20.690Z,12.90
2019-04-04T06:05:50.307Z,12.60
2019-04-04T06:08:19.498Z,12.10
2019-04-04T06:10:50.748Z,12.43
2019-04-04T06:13:22.154Z,11.93
2019-04-04T06:15:50.482Z,12.73
2019-04-04T06:18:19.471Z,6.90
2019-04-04T06:20:49.010Z,15.70
2019-04-04T06:23:20.450Z,12.93
2019-04-04T06:25:48.797Z,11.27
2019-04-04T06:28:17.831Z,10.30
2019-04-04T06:30:46.614Z,11.13
2019-04-04T06:33:15.421Z,9.90
2019-04-04T06:35:47.875Z,9.43
2019-04-04T06:38:16.171Z,8.67
2019-04-04T06:40:45.246Z,8.13
2019-04-04T06:43:14.030Z,7.40
2019-04-04T06:45:46.226Z,7.97
2019-04-04T06:48:13.448Z,8.50
2019-04-04T06:50:43.159Z,10.00
2019-04-04T06:53:12.459Z,10.57
2019-04-04T06:55:41.333Z,10.43
2019-04-04T06:58:10.635Z,10.70
2019-04-04T07:00:42.021Z,12.17
2019-04-04T07:03:10.166Z,10.70
2019-04-04T07:05:39.547Z,11.33
2019-04-04T07:08:09.074Z,11.40
2019-04-04T07:10:37.980Z,11.93
2019-04-04T07:13:21.148Z,12.20
2019-04-04T07:15:46.732Z,11.63
2019-04-04T07:18:08.028Z,12.17
2019-04-04T07:20:36.857Z,12.97
2019-04-04T07:23:06.207Z,11.97
2019-04-04T07:25:35.958Z,12.30
2019-04-04T07:28:05.110Z,12.03
2019-04-04T07:30:33.910Z,12.33
2019-04-04T07:33:02.932Z,12.13
2019-04-04T07:35:31.918Z,12.30
2019-04-04T07:38:00.729Z,12.63
2019-04-04T07:40:29.983Z,12.70
2019-04-04T07:42:59.309Z,12.20
2019-04-04T07:45:28.166Z,12.63
2019-04-04T07:47:56.967Z,14.17
2019-04-04T07:50:27.085Z,14.13
2019-04-04T07:52:56.121Z,14.27
2019-04-04T07:55:25.136Z,14.47
2019-04-04T07:57:54.810Z,14.40
2019-04-04T08:00:23.781Z,14.90
2019-04-04T08:02:52.792Z,14.30
2019-04-04T08:05:21.633Z,14.63
2019-04-04T08:07:50.574Z,14.50
2019-04-04T08:10:21.032Z,13.87
2019-04-04T08:12:50.091Z,14.13
2019-04-04T08:15:19.275Z,13.37
2019-04-04T08:17:48.099Z,13.93
2019-04-04T08:20:16.919Z,14.53
2019-04-04T08:22:46.153Z,13.43
2019-04-04T08:25:14.949Z,14.07
2019-04-04T08:27:44.399Z,14.00
2019-04-04T08:30:13.400Z,13.97
2019-04-04T08:32:42.406Z,13.40
2019-04-04T08:35:11.865Z,14.80
2019-04-04T08:37:41.056Z,14.00
2019-04-04T08:40:10.157Z,14.37
2019-04-04T08:42:39.771Z,14.10
2019-04-04T08:45:08.757Z,13.07
2019-04-04T08:47:38.886Z,13.37
2019-04-04T08:50:08.219Z,12.47
2019-04-04T08:52:37.205Z,13.03
2019-04-04T08:55:06.590Z,12.00
2019-04-04T08:57:35.915Z,11.33
2019-04-04T09:00:05.796Z,11.20
2019-04-04T09:02:34.587Z,11.60
2019-04-04T09:05:11.769Z,11.27
2019-04-04T09:07:34.256Z,12.27
2019-04-04T09:10:03.236Z,11.13
2019-04-04T09:12:32.243Z,11.90
2019-04-04T09:15:01.243Z,10.63
2019-04-04T09:17:30.370Z,11.43
2019-04-04T09:19:59.191Z,9.97
2019-04-04T09:22:27.987Z,9.70
2019-04-04T09:24:57.046Z,8.70
2019-04-04T09:27:25.935Z,9.40
2019-04-04T09:29:54.959Z,8.40
2019-04-04T09:32:23.790Z,8.30
2019-04-04T09:34:52.725Z,8.17
2019-04-04T09:37:22.019Z,8.30
2019-04-04T09:39:50.759Z,7.67
2019-04-04T09:42:19.680Z,8.03
2019-04-04T09:44:48.452Z,7.80
2019-04-04T09:47:17.307Z,8.50
2019-04-04T09:49:46.133Z,8.13
2019-04-04T09:52:14.962Z,7.90
2019-04-04T09:54:43.838Z,7.53
2019-04-04T09:57:14.375Z,7.57
2019-04-04T09:59:43.217Z,7.53
2019-04-04T10:02:12.791Z,7.27
2019-04-04T10:04:41.807Z,6.93
2019-04-04T10:07:10.764Z,7.30
2019-04-04T10:09:39.756Z,6.93
2019-04-04T10:12:08.641Z,6.40
2019-04-04T10:14:37.619Z,6.60
2019-04-04T10:17:09.139Z,6.97
2019-04-04T10:19:38.051Z,6.57
2019-04-04T10:22:06.945Z,7.07
2019-04-04T10:24:35.764Z,7.40
2019-04-04T10:27:04.660Z,7.13
2019-04-04T10:29:33.504Z,7.03
2019-04-04T10:32:02.338Z,7.60
2019-04-04T10:34:31.543Z,7.27
2019-04-04T10:37:00.480Z,7.63
2019-04-04T10:39:32.894Z,7.20
2019-04-04T10:42:01.973Z,6.97
2019-04-04T10:44:32.807Z,7.37
2019-04-04T10:47:01.982Z,7.77
2019-04-04T10:49:30.785Z,7.53
2019-04-04T10:52:00.141Z,7.23
2019-04-04T10:54:30.533Z,7.37
2019-04-04T10:56:59.330Z,7.47
2019-04-04T10:59:28.156Z,7.90
2019-04-04T11:01:57.679Z,7.10
2019-04-04T11:04:27.871Z,7.50
2019-04-04T11:06:56.703Z,7.17
2019-04-04T11:09:25.804Z,7.60
2019-04-04T11:11:54.948Z,8.30
2019-04-04T11:14:25.374Z,8.40
2019-04-04T11:16:54.617Z,8.23
2019-04-04T11:19:31.101Z,8.70
2019-04-04T11:21:54.807Z,8.50
2019-04-04T11:24:24.258Z,8.73
2019-04-04T11:26:53.155Z,9.13
2019-04-04T11:29:22.221Z,9.87
2019-04-04T11:31:50.999Z,9.80
2019-04-04T11:34:19.821Z,10.70
2019-04-04T11:36:48.662Z,9.67
2019-04-04T11:39:17.485Z,9.13
2019-04-04T11:41:48.393Z,9.53
2019-04-04T11:44:17.555Z,9.57
2019-04-04T11:46:46.418Z,9.80
2019-04-04T11:49:15.441Z,8.87
2019-04-04T11:51:44.365Z,9.43
2019-04-04T11:54:13.630Z,9.33
2019-04-04T11:56:42.433Z,8.80
2019-04-04T11:59:11.202Z,9.03
2019-04-04T12:01:41.420Z,9.13
2019-04-04T12:04:10.283Z,8.30
2019-04-04T12:06:39.205Z,9.40
2019-04-04T12:09:08.988Z,9.20
2019-04-04T12:11:37.913Z,8.73
2019-04-04T12:14:06.682Z,8.53
2019-04-04T12:16:35.896Z,9.50
2019-04-04T12:19:04.697Z,8.60
2019-04-04T12:21:34.210Z,8.60
2019-04-04T12:24:03.290Z,8.80
2019-04-04T12:26:32.297Z,8.50
2019-04-04T12:29:01.317Z,8.37
2019-04-04T12:31:30.204Z,8.00
2019-04-04T12:34:01.893Z,8.60
2019-04-04T12:36:29.695Z,8.23
2019-04-04T12:38:59.131Z,8.33
2019-04-04T12:41:28.434Z,8.00
2019-04-04T12:43:57.488Z,7.30
2019-04-04T12:46:26.558Z,7.80
2019-04-04T12:48:55.835Z,7.93
2019-04-04T12:51:24.727Z,7.57
2019-04-04T12:53:53.998Z,7.87
2019-04-04T12:56:23.671Z,7.93
2019-04-04T12:58:53.210Z,7.10
2019-04-04T13:01:22.500Z,7.27
2019-04-04T13:03:51.325Z,7.50
2019-04-04T13:06:20.683Z,7.30
2019-04-04T13:08:49.549Z,6.83
2019-04-04T13:11:18.446Z,6.60
2019-04-04T13:13:47.344Z,5.93
2019-04-04T13:16:17.223Z,6.35
2019-04-04T13:18:46.253Z,6.20
2019-04-04T13:21:15.078Z,6.10
2019-04-04T13:23:44.050Z,7.00
2019-04-04T13:26:13.031Z,6.03
2019-04-04T13:28:42.211Z,6.37
2019-04-04T13:31:11.115Z,6.00
2019-04-04T13:33:40.164Z,6.30
2019-04-04T13:36:08.999Z,6.03
2019-04-04T13:38:37.812Z,5.60
2019-04-04T13:41:06.586Z,6.20
2019-04-04T13:43:36.218Z,5.87
2019-04-04T13:46:05.150Z,5.17
2019-04-04T13:48:33.982Z,5.20
2019-04-04T13:51:02.715Z,5.13
2019-04-04T13:53:31.554Z,4.97
2019-04-04T13:56:00.518Z,5.30
2019-04-04T13:58:29.783Z,5.13
2019-04-04T14:00:59.348Z,4.80
2019-04-04T14:03:28.421Z,4.93
2019-04-04T14:05:57.625Z,4.50
2019-04-04T14:08:26.708Z,4.50
2019-04-04T14:10:58.250Z,4.23
2019-04-04T14:13:26.410Z,4.63
2019-04-04T14:15:55.590Z,4.50
2019-04-04T14:18:38.169Z,4.90
2019-04-04T14:21:03.581Z,3.97
2019-04-04T14:23:27.154Z,4.07
2019-04-04T14:25:59.617Z,4.23
2019-04-04T14:28:28.557Z,3.60
2019-04-04T14:30:57.249Z,3.73
2019-04-04T14:33:26.129Z,3.20
2019-04-04T14:35:57.739Z,3.40
2019-04-04T14:38:26.678Z,3.50
2019-04-04T14:40:55.490Z,3.63
2019-04-04T14:43:24.290Z,3.73
2019-04-04T14:45:53.103Z,3.50
2019-04-04T14:48:22.023Z,3.40
2019-04-04T14:50:51.054Z,3.80
2019-04-04T14:53:19.899Z,3.60
2019-04-04T14:55:49.166Z,4.00
2019-04-04T14:58:18.015Z,4.27
2019-04-04T15:00:46.897Z,3.50
2019-04-04T15:03:15.863Z,3.83
2019-04-04T15:05:44.772Z,3.47
2019-04-04T15:08:13.821Z,4.40
2019-04-04T15:10:42.872Z,4.30
2019-04-04T15:13:11.734Z,4.60
2019-04-04T15:15:42.760Z,4.33
2019-04-04T15:18:11.787Z,4.57
2019-04-04T15:20:40.653Z,4.40
2019-04-04T15:23:09.601Z,4.37
2019-04-04T15:25:38.510Z,4.37
2019-04-04T15:28:07.540Z,4.77
2019-04-04T15:30:36.354Z,4.67
2019-04-04T15:33:05.305Z,4.63
2019-04-04T15:35:34.440Z,5.10
2019-04-04T15:38:03.391Z,4.87
2019-04-04T15:40:32.795Z,4.40
2019-04-04T15:43:04.476Z,5.97
2019-04-04T15:45:33.540Z,5.00
2019-04-04T15:48:02.624Z,5.47
2019-04-04T15:50:31.607Z,5.03
2019-04-04T15:53:00.518Z,5.27
2019-04-04T15:55:29.555Z,5.47
2019-04-04T15:57:58.507Z,5.20
2019-04-04T16:00:27.621Z,5.23
2019-04-04T16:02:56.689Z,5.40
2019-04-04T16:05:25.700Z,5.57
2019-04-04T16:07:55.351Z,5.83
2019-04-04T16:10:24.163Z,5.70
2019-04-04T16:12:53.711Z,6.27
2019-04-04T16:15:22.785Z,5.60
2019-04-04T16:17:51.744Z,6.10
2019-04-04T16:20:21.023Z,6.30
2019-04-04T16:22:50.127Z,5.93
2019-04-04T16:25:19.040Z,8.03
2019-04-04T16:27:48.294Z,7.30
2019-04-04T16:30:17.841Z,6.33
2019-04-04T16:32:46.700Z,6.37
2019-04-04T16:35:16.002Z,5.77
2019-04-04T16:37:45.536Z,5.97
2019-04-04T16:40:14.648Z,6.23
2019-04-04T16:42:43.548Z,6.20
2019-04-04T16:45:12.370Z,5.10
2019-04-04T16:47:41.403Z,5.27
2019-04-04T16:50:10.505Z,5.83
2019-04-04T16:52:39.844Z,6.17
2019-04-04T16:55:09.398Z,7.13
2019-04-04T16:57:38.449Z,7.77
2019-04-04T17:00:08.014Z,6.70
2019-04-04T17:02:37.011Z,6.70
2019-04-04T17:05:06.290Z,6.13
2019-04-04T17:07:35.210Z,6.60
2019-04-04T17:10:04.460Z,6.17
2019-04-04T17:12:33.870Z,6.90
2019-04-04T17:15:04.385Z,6.37
2019-04-04T17:17:33.343Z,6.57
2019-04-04T17:20:02.519Z,6.43
2019-04-04T17:22:31.424Z,6.77
2019-04-04T17:25:00.828Z,6.30
2019-04-04T17:27:29.866Z,6.00
2019-04-04T17:29:59.023Z,6.13
2019-04-04T17:32:28.395Z,6.50
2019-04-04T17:34:57.330Z,6.53
2019-04-04T17:37:26.662Z,6.57
2019-04-04T17:39:56.874Z,6.70
2019-04-04T17:42:30.255Z,6.83
2019-04-04T17:44:57.055Z,6.47
2019-04-04T17:47:26.253Z,6.33
2019-04-04T17:49:55.193Z,6.10
2019-04-04T17:52:24.309Z,5.70
2019-04-04T17:54:53.495Z,5.93
2019-04-04T17:57:23.494Z,5.30
2019-04-04T17:59:52.507Z,5.73
2019-04-04T18:02:22.159Z,5.47
2019-04-04T18:04:51.143Z,5.90
2019-04-04T18:07:20.019Z,5.33
2019-04-04T18:09:48.894Z,6.60
2019-04-04T18:12:17.744Z,6.17
2019-04-04T18:14:46.685Z,5.80
2019-04-04T18:17:16.007Z,6.00
2019-04-04T18:19:45.110Z,6.37
2019-04-04T18:22:14.102Z,5.47
2019-04-04T18:24:43.220Z,6.00
2019-04-04T18:27:12.166Z,5.97
2019-04-04T18:29:40.979Z,5.83
2019-04-04T18:32:09.944Z,6.07
2019-04-04T18:34:39.468Z,6.27
2019-04-04T18:37:08.338Z,6.30
2019-04-04T18:39:37.861Z,6.50
2019-04-04T18:42:06.857Z,6.63
2019-04-04T18:44:36.149Z,6.90
2019-04-04T18:47:05.057Z,6.80
2019-04-04T18:49:34.082Z,7.20
2019-04-04T18:52:03.263Z,9.97
2019-04-04T18:54:32.975Z,7.10
2019-04-04T18:57:02.146Z,6.60
2019-04-04T18:59:31.238Z,6.20
2019-04-04T19:02:00.050Z,6.57
2019-04-04T19:04:28.960Z,6.57
2019-04-04T19:06:57.952Z,6.00
2019-04-04T19:09:27.951Z,5.90
2019-04-04T19:11:56.930Z,5.93
2019-04-04T19:14:25.827Z,6.77
2019-04-04T19:16:54.670Z,6.10
2019-04-04T19:19:23.628Z,6.20
2019-04-04T19:21:53.175Z,6.70
2019-04-04T19:24:22.692Z,6.37
2019-04-04T19:26:51.904Z,6.40
2019-04-04T19:29:21.068Z,6.10
2019-04-04T19:31:50.814Z,7.30
2019-04-04T19:34:20.730Z,7.37
2019-04-04T19:36:50.597Z,7.30
2019-04-04T19:39:19.694Z,7.73
2019-04-04T19:41:48.822Z,7.57
2019-04-04T19:44:17.649Z,6.80
2019-04-04T19:46:46.545Z,8.77
2019-04-04T19:49:15.391Z,8.07
2019-04-04T19:51:44.590Z,7.57
2019-04-04T19:54:13.891Z,8.57
2019-04-04T19:56:42.798Z,8.33
2019-04-04T19:59:11.843Z,7.27
2019-04-04T20:01:40.836Z,8.27
2019-04-04T20:04:09.931Z,7.47
2019-04-04T20:06:38.823Z,7.20
2019-04-04T20:09:07.815Z,7.40
2019-04-04T20:11:36.746Z,7.37
2019-04-04T20:14:06.305Z,7.07
2019-04-04T20:16:37.746Z,8.00
2019-04-04T20:19:06.928Z,7.63
2019-04-04T20:21:35.908Z,8.47
2019-04-04T20:24:05.089Z,8.47
2019-04-04T20:26:33.957Z,8.23
2019-04-04T20:29:02.966Z,7.60
2019-04-04T20:31:32.308Z,7.80
2019-04-04T20:34:04.274Z,7.80
2019-04-04T20:36:32.119Z,7.13
2019-04-04T20:39:01.067Z,7.67
2019-04-04T20:41:30.400Z,8.27
2019-04-04T20:43:59.240Z,7.40
2019-04-04T20:46:28.355Z,7.87
2019-04-04T20:48:58.031Z,7.27
2019-04-04T20:51:26.991Z,7.63
2019-04-04T20:53:56.710Z,8.13
2019-04-04T20:56:25.652Z,7.73
2019-04-04T20:58:54.790Z,7.73
2019-04-04T21:01:23.874Z,7.63
2019-04-04T21:03:53.372Z,8.47
2019-04-04T21:06:22.204Z,8.00
2019-04-04T21:08:51.547Z,8.03
2019-04-04T21:11:22.483Z,8.00
2019-04-04T21:13:56.304Z,7.60
2019-04-04T21:16:24.461Z,7.50
2019-04-04T21:18:53.411Z,8.23
2019-04-04T21:21:24.058Z,8.13
2019-04-04T21:23:53.110Z,8.20
2019-04-04T21:26:22.210Z,8.13
2019-04-04T21:28:51.232Z,7.80
2019-04-04T21:31:20.191Z,7.93
2019-04-04T21:33:49.719Z,8.43
2019-04-04T21:36:19.227Z,8.50
2019-04-04T21:38:48.572Z,8.33
2019-04-04T21:41:17.651Z,8.00
2019-04-04T21:43:46.749Z,7.90
2019-04-04T21:46:15.905Z,7.90
2019-04-04T21:48:45.467Z,8.53
2019-04-04T21:51:14.389Z,8.00
2019-04-04T21:53:43.379Z,8.77
2019-04-04T21:56:12.205Z,7.70
2019-04-04T21:58:41.399Z,8.30
2019-04-04T22:01:10.266Z,8.57
2019-04-04T22:03:41.097Z,8.83
2019-04-04T22:06:10.778Z,8.40
2019-04-04T22:08:39.701Z,8.03
2019-04-04T22:11:08.579Z,7.77
2019-04-04T22:13:37.563Z,7.90
2019-04-04T22:16:06.491Z,8.37
2019-04-04T22:18:35.609Z,8.17
2019-04-04T22:21:04.562Z,7.80
2019-04-04T22:23:33.419Z,7.93
2019-04-04T22:26:02.308Z,8.07
2019-04-04T22:28:31.175Z,7.60
2019-04-04T22:31:00.406Z,7.60
2019-04-04T22:33:29.223Z,8.57
2019-04-04T22:35:58.326Z,8.57
2019-04-04T22:38:27.308Z,8.13
2019-04-04T22:40:56.523Z,7.87
2019-04-04T22:43:25.488Z,8.20
2019-04-04T22:45:54.814Z,8.33
2019-04-04T22:48:23.647Z,8.43
2019-04-04T22:50:52.755Z,9.00
2019-04-04T22:53:21.651Z,8.43
2019-04-04T22:55:50.436Z,9.00
2019-04-04T22:58:28.094Z,8.50
2019-04-04T23:00:50.088Z,8.57
2019-04-04T23:03:19.412Z,9.23
2019-04-04T23:05:48.227Z,8.93
2019-04-04T23:08:17.287Z,8.33
2019-04-04T23:10:46.159Z,9.17
2019-04-04T23:13:15.314Z,9.37
2019-04-04T23:15:45.983Z,9.20
2019-04-04T23:18:15.599Z,8.93
2019-04-04T23:20:44.577Z,9.10
2019-04-04T23:23:13.885Z,9.60
2019-04-04T23:25:42.976Z,9.77
2019-04-04T23:28:12.068Z,9.53
2019-04-04T23:30:41.369Z,9.47
2019-04-04T23:33:10.204Z,9.00
2019-04-04T23:35:39.060Z,9.30
2019-04-04T23:38:07.910Z,9.80
2019-04-04T23:40:36.691Z,9.40
2019-04-04T23:43:05.538Z,9.73
2019-04-04T23:45:34.367Z,9.47
2019-04-04T23:48:03.175Z,9.60
2019-04-04T23:50:32.751Z,9.27
2019-04-04T23:53:01.790Z,10.60
2019-04-04T23:55:30.715Z,9.13
2019-04-04T23:57:59.531Z,9.77
